Akhiok, Alaska
Current Conditions -  °F | °C
As of 2:53 PM on Monday 24 Nov 2014 (Local Time) from PADQ Reporting Station
Scattered Clouds Scattered Clouds  
Wind Chill: 42°   Ceiling: Unl
Heat Index: 42°   Visibility: 10mi
Dew Point: 36°   Wind: 3mph
Humidity: 79%   Direction: 310°NW
Pressure: 29.73"   Gusts: NA
Location:  57.454°N, 153.546°W
Report Text: PADQ 242353Z 31003KT 10SM SCT015 SCT200 06/02 A2973 RMK AO2 SLP068 T00560022 10061 20022 51015
Loading
Personal Weather Stations






























Interactive Weather Map New forecast layout! Learn more

10-Day Weather Forecast

Advertisements
Track Severe Weather on mobile